sensor_id;sensor_type;location;lat;lon;timestamp;temperature;humidity
19085;DHT22;9675;51.538;6.728;2024-01-06T00:00:34;8.40;99.90
19085;DHT22;9675;51.538;6.728;2024-01-06T00:03:01;8.40;99.90
19085;DHT22;9675;51.538;6.728;2024-01-06T00:05:29;8.40;99.90
19085;DHT22;9675;51.538;6.728;2024-01-06T00:07:56;8.40;99.90
19085;DHT22;9675;51.538;6.728;2024-01-06T00:10:24;8.40;99.90
19085;DHT22;9675;51.538;6.728;2024-01-06T00:12:52;8.40;99.90
19085;DHT22;9675;51.538;6.728;2024-01-06T00:15:19;8.40;99.90
19085;DHT22;9675;51.538;6.728;2024-01-06T00:17:46;8.40;99.90
19085;DHT22;9675;51.538;6.728;2024-01-06T00:20:13;8.40;99.90
19085;DHT22;9675;51.538;6.728;2024-01-06T00:22:40;8.40;99.90
19085;DHT22;9675;51.538;6.728;2024-01-06T00:25:08;8.40;99.90
19085;DHT22;9675;51.538;6.728;2024-01-06T00:27:36;8.40;99.90
19085;DHT22;9675;51.538;6.728;2024-01-06T00:30:04;8.40;99.90
19085;DHT22;9675;51.538;6.728;2024-01-06T00:32:32;8.40;99.90
19085;DHT22;9675;51.538;6.728;2024-01-06T00:34:59;8.30;99.90
19085;DHT22;9675;51.538;6.728;2024-01-06T00:37:27;8.40;99.90
19085;DHT22;9675;51.538;6.728;2024-01-06T00:39:54;8.30;99.90
19085;DHT22;9675;51.538;6.728;2024-01-06T00:42:21;8.30;99.90
19085;DHT22;9675;51.538;6.728;2024-01-06T00:44:50;8.30;99.90
19085;DHT22;9675;51.538;6.728;2024-01-06T00:47:17;8.30;99.90
19085;DHT22;9675;51.538;6.728;2024-01-06T00:49:44;8.30;99.90
19085;DHT22;9675;51.538;6.728;2024-01-06T00:52:11;8.30;99.90
19085;DHT22;9675;51.538;6.728;2024-01-06T00:54:38;8.30;99.90
19085;DHT22;9675;51.538;6.728;2024-01-06T00:57:05;8.30;99.90
19085;DHT22;9675;51.538;6.728;2024-01-06T00:59:32;8.30;99.90
19085;DHT22;9675;51.538;6.728;2024-01-06T01:02:00;8.30;99.90
19085;DHT22;9675;51.538;6.728;2024-01-06T01:04:27;8.30;99.90
19085;DHT22;9675;51.538;6.728;2024-01-06T01:06:53;8.30;99.90
19085;DHT22;9675;51.538;6.728;2024-01-06T01:09:20;8.30;99.90
19085;DHT22;9675;51.538;6.728;2024-01-06T01:11:47;8.30;99.90
19085;DHT22;9675;51.538;6.728;2024-01-06T01:14:14;8.30;99.90
19085;DHT22;9675;51.538;6.728;2024-01-06T01:16:44;8.30;99.90
19085;DHT22;9675;51.538;6.728;2024-01-06T01:19:12;8.30;99.90
19085;DHT22;9675;51.538;6.728;2024-01-06T01:21:39;8.30;99.90
19085;DHT22;9675;51.538;6.728;2024-01-06T01:24:07;8.30;99.90
19085;DHT22;9675;51.538;6.728;2024-01-06T01:26:34;8.30;99.90
19085;DHT22;9675;51.538;6.728;2024-01-06T01:29:01;8.30;99.90
19085;DHT22;9675;51.538;6.728;2024-01-06T01:31:28;8.30;99.90
19085;DHT22;9675;51.538;6.728;2024-01-06T01:33:55;8.30;99.90
19085;DHT22;9675;51.538;6.728;2024-01-06T01:36:24;8.30;99.90
19085;DHT22;9675;51.538;6.728;2024-01-06T01:38:51;8.30;99.90
19085;DHT22;9675;51.538;6.728;2024-01-06T01:41:18;8.30;99.90
19085;DHT22;9675;51.538;6.728;2024-01-06T01:43:46;8.30;99.90
19085;DHT22;9675;51.538;6.728;2024-01-06T01:46:13;8.30;99.90
19085;DHT22;9675;51.538;6.728;2024-01-06T01:48:41;8.30;99.90
19085;DHT22;9675;51.538;6.728;2024-01-06T01:51:12;8.30;99.90
19085;DHT22;9675;51.538;6.728;2024-01-06T01:53:42;8.30;99.90
19085;DHT22;9675;51.538;6.728;2024-01-06T01:56:09;8.30;99.90
19085;DHT22;9675;51.538;6.728;2024-01-06T01:58:38;8.30;99.90
19085;DHT22;9675;51.538;6.728;2024-01-06T02:01:06;8.30;99.90
19085;DHT22;9675;51.538;6.728;2024-01-06T02:03:35;8.20;99.90
19085;DHT22;9675;51.538;6.728;2024-01-06T02:06:02;8.30;99.90
19085;DHT22;9675;51.538;6.728;2024-01-06T02:08:30;8.20;99.90
19085;DHT22;9675;51.538;6.728;2024-01-06T02:11:00;8.20;99.90
19085;DHT22;9675;51.538;6.728;2024-01-06T02:13:33;8.20;99.90
19085;DHT22;9675;51.538;6.728;2024-01-06T02:16:01;8.20;99.90
19085;DHT22;9675;51.538;6.728;2024-01-06T02:18:30;8.20;99.90
19085;DHT22;9675;51.538;6.728;2024-01-06T02:21:01;8.20;99.90
19085;DHT22;9675;51.538;6.728;2024-01-06T02:23:34;8.10;99.90
19085;DHT22;9675;51.538;6.728;2024-01-06T02:26:03;8.20;99.90
19085;DHT22;9675;51.538;6.728;2024-01-06T02:28:33;8.10;99.90
19085;DHT22;9675;51.538;6.728;2024-01-06T02:31:00;8.10;99.90
19085;DHT22;9675;51.538;6.728;2024-01-06T02:33:27;8.10;99.90
19085;DHT22;9675;51.538;6.728;2024-01-06T02:35:56;8.10;99.90
19085;DHT22;9675;51.538;6.728;2024-01-06T02:38:23;8.10;99.90
19085;DHT22;9675;51.538;6.728;2024-01-06T02:40:52;8.10;99.90
19085;DHT22;9675;51.538;6.728;2024-01-06T02:43:19;8.00;99.90
19085;DHT22;9675;51.538;6.728;2024-01-06T02:45:47;8.00;99.90
19085;DHT22;9675;51.538;6.728;2024-01-06T02:48:15;8.00;99.90
19085;DHT22;9675;51.538;6.728;2024-01-06T02:50:43;8.00;99.90
19085;DHT22;9675;51.538;6.728;2024-01-06T02:53:10;8.00;99.90
19085;DHT22;9675;51.538;6.728;2024-01-06T02:55:38;7.90;99.90
19085;DHT22;9675;51.538;6.728;2024-01-06T02:58:06;8.00;99.90
19085;DHT22;9675;51.538;6.728;2024-01-06T03:00:34;8.00;99.90
19085;DHT22;9675;51.538;6.728;2024-01-06T03:03:01;8.00;99.90
19085;DHT22;9675;51.538;6.728;2024-01-06T03:05:29;8.00;99.90
19085;DHT22;9675;51.538;6.728;2024-01-06T03:07:57;7.90;99.90
19085;DHT22;9675;51.538;6.728;2024-01-06T03:10:24;7.90;99.90
19085;DHT22;9675;51.538;6.728;2024-01-06T03:12:51;7.90;99.90
19085;DHT22;9675;51.538;6.728;2024-01-06T03:15:20;8.00;99.90
19085;DHT22;9675;51.538;6.728;2024-01-06T03:17:47;7.90;99.90
19085;DHT22;9675;51.538;6.728;2024-01-06T03:20:15;7.90;99.90
19085;DHT22;9675;51.538;6.728;2024-01-06T03:22:51;7.90;99.90
19085;DHT22;9675;51.538;6.728;2024-01-06T03:25:18;7.90;99.90
19085;DHT22;9675;51.538;6.728;2024-01-06T03:27:46;7.90;99.90
19085;DHT22;9675;51.538;6.728;2024-01-06T03:30:13;7.90;99.90
19085;DHT22;9675;51.538;6.728;2024-01-06T03:32:41;7.90;99.90
19085;DHT22;9675;51.538;6.728;2024-01-06T03:35:08;7.90;99.90
19085;DHT22;9675;51.538;6.728;2024-01-06T03:37:35;7.90;99.90
19085;DHT22;9675;51.538;6.728;2024-01-06T03:40:03;7.80;99.90
19085;DHT22;9675;51.538;6.728;2024-01-06T03:42:31;7.90;99.90
19085;DHT22;9675;51.538;6.728;2024-01-06T03:44:58;7.90;99.90
19085;DHT22;9675;51.538;6.728;2024-01-06T03:47:25;7.80;99.90
19085;DHT22;9675;51.538;6.728;2024-01-06T03:49:54;7.80;99.90
19085;DHT22;9675;51.538;6.728;2024-01-06T03:52:21;7.80;99.90
19085;DHT22;9675;51.538;6.728;2024-01-06T03:54:48;7.80;99.90
19085;DHT22;9675;51.538;6.728;2024-01-06T03:57:15;7.90;99.90
19085;DHT22;9675;51.538;6.728;2024-01-06T03:59:42;7.80;99.90
19085;DHT22;9675;51.538;6.728;2024-01-06T04:02:09;7.90;99.90
19085;DHT22;9675;51.538;6.728;2024-01-06T04:04:36;7.90;99.90
19085;DHT22;9675;51.538;6.728;2024-01-06T04:07:05;7.90;99.90
19085;DHT22;9675;51.538;6.728;2024-01-06T04:09:32;7.80;99.90
19085;DHT22;9675;51.538;6.728;2024-01-06T04:11:59;7.80;99.90
19085;DHT22;9675;51.538;6.728;2024-01-06T04:14:27;7.80;99.90
19085;DHT22;9675;51.538;6.728;2024-01-06T04:16:54;7.80;99.90
19085;DHT22;9675;51.538;6.728;2024-01-06T04:19:22;7.80;99.90
19085;DHT22;9675;51.538;6.728;2024-01-06T04:21:49;7.80;99.90
19085;DHT22;9675;51.538;6.728;2024-01-06T04:24:17;7.80;99.90
19085;DHT22;9675;51.538;6.728;2024-01-06T04:26:45;7.80;99.90
19085;DHT22;9675;51.538;6.728;2024-01-06T04:29:12;7.80;99.90
19085;DHT22;9675;51.538;6.728;2024-01-06T04:31:40;7.70;99.90
19085;DHT22;9675;51.538;6.728;2024-01-06T04:34:07;7.70;99.90
19085;DHT22;9675;51.538;6.728;2024-01-06T04:36:34;7.70;99.90
19085;DHT22;9675;51.538;6.728;2024-01-06T04:39:01;7.70;99.90
19085;DHT22;9675;51.538;6.728;2024-01-06T04:41:30;7.70;99.90
19085;DHT22;9675;51.538;6.728;2024-01-06T04:43:57;7.70;99.90
19085;DHT22;9675;51.538;6.728;2024-01-06T04:46:24;7.70;99.90
19085;DHT22;9675;51.538;6.728;2024-01-06T04:48:56;7.70;99.90
19085;DHT22;9675;51.538;6.728;2024-01-06T04:51:23;7.70;99.90
19085;DHT22;9675;51.538;6.728;2024-01-06T04:53:50;7.70;99.90
19085;DHT22;9675;51.538;6.728;2024-01-06T04:56:17;7.70;99.90
19085;DHT22;9675;51.538;6.728;2024-01-06T04:58:45;7.70;99.90
19085;DHT22;9675;51.538;6.728;2024-01-06T05:01:12;7.60;99.90
19085;DHT22;9675;51.538;6.728;2024-01-06T05:03:39;7.60;99.90
19085;DHT22;9675;51.538;6.728;2024-01-06T05:06:06;7.60;99.90
19085;DHT22;9675;51.538;6.728;2024-01-06T05:08:33;7.60;99.90
19085;DHT22;9675;51.538;6.728;2024-01-06T05:11:04;7.60;99.90
19085;DHT22;9675;51.538;6.728;2024-01-06T05:13:32;7.60;99.90
19085;DHT22;9675;51.538;6.728;2024-01-06T05:16:00;7.50;99.90
19085;DHT22;9675;51.538;6.728;2024-01-06T05:18:27;7.60;99.90
19085;DHT22;9675;51.538;6.728;2024-01-06T05:20:54;7.60;99.90
19085;DHT22;9675;51.538;6.728;2024-01-06T05:23:22;7.60;99.90
19085;DHT22;9675;51.538;6.728;2024-01-06T05:25:49;7.60;99.90
19085;DHT22;9675;51.538;6.728;2024-01-06T05:28:16;7.60;99.90
19085;DHT22;9675;51.538;6.728;2024-01-06T05:30:43;7.60;99.90
19085;DHT22;9675;51.538;6.728;2024-01-06T05:33:12;7.60;99.90
19085;DHT22;9675;51.538;6.728;2024-01-06T05:35:40;7.60;99.90
19085;DHT22;9675;51.538;6.728;2024-01-06T05:38:07;7.60;99.90
19085;DHT22;9675;51.538;6.728;2024-01-06T05:40:35;7.60;99.90
19085;DHT22;9675;51.538;6.728;2024-01-06T05:43:02;7.60;99.90
19085;DHT22;9675;51.538;6.728;2024-01-06T05:45:29;7.60;99.90
19085;DHT22;9675;51.538;6.728;2024-01-06T05:47:56;7.60;99.90
19085;DHT22;9675;51.538;6.728;2024-01-06T05:50:24;7.60;99.90
19085;DHT22;9675;51.538;6.728;2024-01-06T05:52:51;7.60;99.90
19085;DHT22;9675;51.538;6.728;2024-01-06T05:55:20;7.60;99.90
19085;DHT22;9675;51.538;6.728;2024-01-06T05:57:48;7.60;99.90
19085;DHT22;9675;51.538;6.728;2024-01-06T06:00:15;7.60;99.90
19085;DHT22;9675;51.538;6.728;2024-01-06T06:02:43;7.50;99.90
19085;DHT22;9675;51.538;6.728;2024-01-06T06:05:10;7.50;99.90
19085;DHT22;9675;51.538;6.728;2024-01-06T06:07:38;7.50;99.90
19085;DHT22;9675;51.538;6.728;2024-01-06T06:10:08;7.50;99.90
19085;DHT22;9675;51.538;6.728;2024-01-06T06:12:36;7.50;99.90
19085;DHT22;9675;51.538;6.728;2024-01-06T06:15:05;7.40;99.90
19085;DHT22;9675;51.538;6.728;2024-01-06T06:17:32;7.40;99.90
19085;DHT22;9675;51.538;6.728;2024-01-06T06:20:00;7.40;99.90
19085;DHT22;9675;51.538;6.728;2024-01-06T06:22:27;7.40;99.90
19085;DHT22;9675;51.538;6.728;2024-01-06T06:24:57;7.40;99.90
19085;DHT22;9675;51.538;6.728;2024-01-06T06:27:25;7.40;99.90
19085;DHT22;9675;51.538;6.728;2024-01-06T06:29:52;7.40;99.90
19085;DHT22;9675;51.538;6.728;2024-01-06T06:32:20;7.40;99.90
19085;DHT22;9675;51.538;6.728;2024-01-06T06:34:47;7.40;99.90
19085;DHT22;9675;51.538;6.728;2024-01-06T06:37:14;7.40;99.90
19085;DHT22;9675;51.538;6.728;2024-01-06T06:39:41;7.40;99.90
19085;DHT22;9675;51.538;6.728;2024-01-06T06:42:11;7.40;99.90
19085;DHT22;9675;51.538;6.728;2024-01-06T06:44:38;7.40;99.90
19085;DHT22;9675;51.538;6.728;2024-01-06T06:47:05;7.40;99.90
19085;DHT22;9675;51.538;6.728;2024-01-06T06:49:32;7.40;99.90
19085;DHT22;9675;51.538;6.728;2024-01-06T06:51:59;7.30;99.90
19085;DHT22;9675;51.538;6.728;2024-01-06T06:54:28;7.30;99.90
19085;DHT22;9675;51.538;6.728;2024-01-06T06:56:55;7.30;99.90
19085;DHT22;9675;51.538;6.728;2024-01-06T06:59:23;7.30;99.90
19085;DHT22;9675;51.538;6.728;2024-01-06T07:01:50;7.30;99.90
19085;DHT22;9675;51.538;6.728;2024-01-06T07:04:17;7.30;99.90
19085;DHT22;9675;51.538;6.728;2024-01-06T07:06:44;7.30;99.90
19085;DHT22;9675;51.538;6.728;2024-01-06T07:09:11;7.30;99.90
19085;DHT22;9675;51.538;6.728;2024-01-06T07:11:39;7.30;99.90
19085;DHT22;9675;51.538;6.728;2024-01-06T07:14:06;7.20;99.90
19085;DHT22;9675;51.538;6.728;2024-01-06T07:16:34;7.20;99.90
19085;DHT22;9675;51.538;6.728;2024-01-06T07:19:01;7.20;99.90
19085;DHT22;9675;51.538;6.728;2024-01-06T07:21:28;7.20;99.90
19085;DHT22;9675;51.538;6.728;2024-01-06T07:23:55;7.20;99.90
19085;DHT22;9675;51.538;6.728;2024-01-06T07:26:22;7.20;99.90
19085;DHT22;9675;51.538;6.728;2024-01-06T07:28:49;7.20;99.90
19085;DHT22;9675;51.538;6.728;2024-01-06T07:31:16;7.10;99.90
19085;DHT22;9675;51.538;6.728;2024-01-06T07:33:45;7.10;99.90
19085;DHT22;9675;51.538;6.728;2024-01-06T07:36:12;7.10;99.90
19085;DHT22;9675;51.538;6.728;2024-01-06T07:38:39;7.10;99.90
19085;DHT22;9675;51.538;6.728;2024-01-06T07:41:07;7.10;99.90
19085;DHT22;9675;51.538;6.728;2024-01-06T07:43:34;7.10;99.90
19085;DHT22;9675;51.538;6.728;2024-01-06T07:46:01;7.10;99.90
19085;DHT22;9675;51.538;6.728;2024-01-06T07:48:29;7.10;99.90
19085;DHT22;9675;51.538;6.728;2024-01-06T07:50:57;7.10;99.90
19085;DHT22;9675;51.538;6.728;2024-01-06T07:53:24;7.00;99.90
19085;DHT22;9675;51.538;6.728;2024-01-06T07:55:51;7.00;99.90
19085;DHT22;9675;51.538;6.728;2024-01-06T07:58:18;7.00;99.90
19085;DHT22;9675;51.538;6.728;2024-01-06T08:00:47;7.00;99.90
19085;DHT22;9675;51.538;6.728;2024-01-06T08:03:14;7.00;99.90
19085;DHT22;9675;51.538;6.728;2024-01-06T08:05:42;7.00;99.90
19085;DHT22;9675;51.538;6.728;2024-01-06T08:08:10;7.00;99.90
19085;DHT22;9675;51.538;6.728;2024-01-06T08:10:38;7.00;99.90
19085;DHT22;9675;51.538;6.728;2024-01-06T08:13:05;7.00;99.90
19085;DHT22;9675;51.538;6.728;2024-01-06T08:15:32;7.00;99.90
19085;DHT22;9675;51.538;6.728;2024-01-06T08:17:59;6.90;99.90
19085;DHT22;9675;51.538;6.728;2024-01-06T08:20:27;6.90;99.90
19085;DHT22;9675;51.538;6.728;2024-01-06T08:22:54;6.90;99.90
19085;DHT22;9675;51.538;6.728;2024-01-06T08:25:23;6.90;99.90
19085;DHT22;9675;51.538;6.728;2024-01-06T08:27:50;6.90;99.90
19085;DHT22;9675;51.538;6.728;2024-01-06T08:30:17;6.90;99.90
19085;DHT22;9675;51.538;6.728;2024-01-06T08:32:44;6.90;99.90
19085;DHT22;9675;51.538;6.728;2024-01-06T08:35:11;6.90;99.90
19085;DHT22;9675;51.538;6.728;2024-01-06T08:37:42;6.90;99.90
19085;DHT22;9675;51.538;6.728;2024-01-06T08:40:10;6.90;99.90
19085;DHT22;9675;51.538;6.728;2024-01-06T08:42:39;6.90;99.90
19085;DHT22;9675;51.538;6.728;2024-01-06T08:45:06;6.90;99.90
19085;DHT22;9675;51.538;6.728;2024-01-06T08:47:33;6.90;99.90
19085;DHT22;9675;51.538;6.728;2024-01-06T08:50:00;6.90;99.90
19085;DHT22;9675;51.538;6.728;2024-01-06T08:52:27;6.80;99.90
19085;DHT22;9675;51.538;6.728;2024-01-06T08:54:54;6.90;99.90
19085;DHT22;9675;51.538;6.728;2024-01-06T08:57:21;6.80;99.90
19085;DHT22;9675;51.538;6.728;2024-01-06T08:59:49;6.90;99.90
19085;DHT22;9675;51.538;6.728;2024-01-06T09:02:16;6.90;99.90
19085;DHT22;9675;51.538;6.728;2024-01-06T09:04:43;6.80;99.90
19085;DHT22;9675;51.538;6.728;2024-01-06T09:07:10;6.80;99.90
19085;DHT22;9675;51.538;6.728;2024-01-06T09:09:37;6.80;99.90
19085;DHT22;9675;51.538;6.728;2024-01-06T09:12:04;6.80;99.90
19085;DHT22;9675;51.538;6.728;2024-01-06T09:14:32;6.80;99.90
19085;DHT22;9675;51.538;6.728;2024-01-06T09:17:00;6.80;99.90
19085;DHT22;9675;51.538;6.728;2024-01-06T09:19:27;6.80;99.90
19085;DHT22;9675;51.538;6.728;2024-01-06T09:21:54;6.80;99.90
19085;DHT22;9675;51.538;6.728;2024-01-06T09:24:21;6.80;99.90
19085;DHT22;9675;51.538;6.728;2024-01-06T09:26:49;6.80;99.90
19085;DHT22;9675;51.538;6.728;2024-01-06T09:29:17;6.70;99.90
19085;DHT22;9675;51.538;6.728;2024-01-06T09:31:44;6.70;99.90
19085;DHT22;9675;51.538;6.728;2024-01-06T09:34:12;6.70;99.90
19085;DHT22;9675;51.538;6.728;2024-01-06T09:36:39;6.70;99.90
19085;DHT22;9675;51.538;6.728;2024-01-06T09:39:06;6.70;99.90
19085;DHT22;9675;51.538;6.728;2024-01-06T09:41:34;6.70;99.90
19085;DHT22;9675;51.538;6.728;2024-01-06T09:44:01;6.70;99.90
19085;DHT22;9675;51.538;6.728;2024-01-06T09:46:29;6.70;99.90
19085;DHT22;9675;51.538;6.728;2024-01-06T09:48:56;6.70;99.90
19085;DHT22;9675;51.538;6.728;2024-01-06T09:51:25;6.70;99.90
19085;DHT22;9675;51.538;6.728;2024-01-06T09:53:57;6.70;99.90
19085;DHT22;9675;51.538;6.728;2024-01-06T09:56:25;6.70;99.90
19085;DHT22;9675;51.538;6.728;2024-01-06T09:58:53;6.60;99.90
19085;DHT22;9675;51.538;6.728;2024-01-06T10:01:21;6.60;99.90
19085;DHT22;9675;51.538;6.728;2024-01-06T10:03:49;6.60;99.90
19085;DHT22;9675;51.538;6.728;2024-01-06T10:06:17;6.60;99.90
19085;DHT22;9675;51.538;6.728;2024-01-06T10:08:50;6.60;99.90
19085;DHT22;9675;51.538;6.728;2024-01-06T10:11:18;6.60;99.90
19085;DHT22;9675;51.538;6.728;2024-01-06T10:13:48;6.60;99.90
19085;DHT22;9675;51.538;6.728;2024-01-06T10:16:16;6.60;99.90
19085;DHT22;9675;51.538;6.728;2024-01-06T10:18:44;6.60;99.90
19085;DHT22;9675;51.538;6.728;2024-01-06T10:21:12;6.60;99.90
19085;DHT22;9675;51.538;6.728;2024-01-06T10:23:42;6.60;99.90
19085;DHT22;9675;51.538;6.728;2024-01-06T10:26:13;6.60;99.90
19085;DHT22;9675;51.538;6.728;2024-01-06T10:28:41;6.60;99.90
19085;DHT22;9675;51.538;6.728;2024-01-06T10:31:08;6.60;99.90
19085;DHT22;9675;51.538;6.728;2024-01-06T10:33:35;6.60;99.90
19085;DHT22;9675;51.538;6.728;2024-01-06T10:36:03;6.60;99.90
19085;DHT22;9675;51.538;6.728;2024-01-06T10:38:33;6.60;99.90
19085;DHT22;9675;51.538;6.728;2024-01-06T10:41:01;6.60;99.90
19085;DHT22;9675;51.538;6.728;2024-01-06T10:43:34;6.60;99.90
19085;DHT22;9675;51.538;6.728;2024-01-06T10:46:06;6.50;99.90
19085;DHT22;9675;51.538;6.728;2024-01-06T10:48:37;6.50;99.90
19085;DHT22;9675;51.538;6.728;2024-01-06T10:51:08;6.50;99.90
19085;DHT22;9675;51.538;6.728;2024-01-06T10:53:36;6.50;99.90
19085;DHT22;9675;51.538;6.728;2024-01-06T10:56:05;6.50;99.90
19085;DHT22;9675;51.538;6.728;2024-01-06T10:58:35;6.50;99.90
19085;DHT22;9675;51.538;6.728;2024-01-06T11:01:08;6.50;99.90
19085;DHT22;9675;51.538;6.728;2024-01-06T11:03:36;6.50;99.90
19085;DHT22;9675;51.538;6.728;2024-01-06T11:06:05;6.50;99.90
19085;DHT22;9675;51.538;6.728;2024-01-06T11:08:39;6.50;99.90
19085;DHT22;9675;51.538;6.728;2024-01-06T11:11:15;6.50;99.90
19085;DHT22;9675;51.538;6.728;2024-01-06T11:13:45;6.50;99.90
19085;DHT22;9675;51.538;6.728;2024-01-06T11:16:37;6.50;99.90
19085;DHT22;9675;51.538;6.728;2024-01-06T11:19:45;6.50;99.90
19085;DHT22;9675;51.538;6.728;2024-01-06T11:22:27;6.50;99.90
19085;DHT22;9675;51.538;6.728;2024-01-06T11:25:03;6.50;99.90
19085;DHT22;9675;51.538;6.728;2024-01-06T11:27:33;6.40;99.90
19085;DHT22;9675;51.538;6.728;2024-01-06T11:30:03;6.40;99.90
19085;DHT22;9675;51.538;6.728;2024-01-06T11:32:34;6.40;99.90
19085;DHT22;9675;51.538;6.728;2024-01-06T11:35:06;6.40;99.90
19085;DHT22;9675;51.538;6.728;2024-01-06T11:37:36;6.40;99.90
19085;DHT22;9675;51.538;6.728;2024-01-06T11:40:23;6.40;99.90
19085;DHT22;9675;51.538;6.728;2024-01-06T11:43:02;6.40;99.90
19085;DHT22;9675;51.538;6.728;2024-01-06T11:45:32;6.40;99.90
19085;DHT22;9675;51.538;6.728;2024-01-06T11:48:02;6.30;99.90
19085;DHT22;9675;51.538;6.728;2024-01-06T11:50:31;6.40;99.90
19085;DHT22;9675;51.538;6.728;2024-01-06T11:53:00;6.40;99.90
19085;DHT22;9675;51.538;6.728;2024-01-06T11:55:28;6.30;99.90
19085;DHT22;9675;51.538;6.728;2024-01-06T11:57:57;6.30;99.90
19085;DHT22;9675;51.538;6.728;2024-01-06T12:00:27;6.30;99.90
19085;DHT22;9675;51.538;6.728;2024-01-06T12:03:00;6.40;99.90
19085;DHT22;9675;51.538;6.728;2024-01-06T12:05:28;6.30;99.90
19085;DHT22;9675;51.538;6.728;2024-01-06T12:07:55;6.30;99.90
19085;DHT22;9675;51.538;6.728;2024-01-06T12:10:25;6.30;99.90
19085;DHT22;9675;51.538;6.728;2024-01-06T12:12:58;6.30;99.90
19085;DHT22;9675;51.538;6.728;2024-01-06T12:15:27;6.40;99.90
19085;DHT22;9675;51.538;6.728;2024-01-06T12:17:55;6.30;99.90
19085;DHT22;9675;51.538;6.728;2024-01-06T12:20:25;6.30;99.90
19085;DHT22;9675;51.538;6.728;2024-01-06T12:22:55;6.30;99.90
19085;DHT22;9675;51.538;6.728;2024-01-06T12:25:24;6.20;99.90
19085;DHT22;9675;51.538;6.728;2024-01-06T12:27:54;6.20;99.90
19085;DHT22;9675;51.538;6.728;2024-01-06T12:30:23;6.20;99.90
19085;DHT22;9675;51.538;6.728;2024-01-06T12:32:51;6.20;99.90
19085;DHT22;9675;51.538;6.728;2024-01-06T12:35:19;6.20;99.90
19085;DHT22;9675;51.538;6.728;2024-01-06T12:37:48;6.20;99.90
19085;DHT22;9675;51.538;6.728;2024-01-06T12:40:16;6.10;99.90
19085;DHT22;9675;51.538;6.728;2024-01-06T12:42:45;6.10;99.90
19085;DHT22;9675;51.538;6.728;2024-01-06T12:45:12;6.10;99.90
19085;DHT22;9675;51.538;6.728;2024-01-06T12:47:52;6.10;99.90
19085;DHT22;9675;51.538;6.728;2024-01-06T12:50:25;6.10;99.90
19085;DHT22;9675;51.538;6.728;2024-01-06T12:52:54;6.10;99.90
19085;DHT22;9675;51.538;6.728;2024-01-06T12:55:21;6.10;99.90
19085;DHT22;9675;51.538;6.728;2024-01-06T12:57:48;6.10;99.90
19085;DHT22;9675;51.538;6.728;2024-01-06T13:00:16;6.10;99.90
19085;DHT22;9675;51.538;6.728;2024-01-06T13:02:43;6.10;99.90
19085;DHT22;9675;51.538;6.728;2024-01-06T13:05:10;6.00;99.90
19085;DHT22;9675;51.538;6.728;2024-01-06T13:07:38;6.00;99.90
19085;DHT22;9675;51.538;6.728;2024-01-06T13:10:08;6.00;99.90
19085;DHT22;9675;51.538;6.728;2024-01-06T13:12:35;6.00;99.90
19085;DHT22;9675;51.538;6.728;2024-01-06T13:15:03;6.10;99.90
19085;DHT22;9675;51.538;6.728;2024-01-06T13:17:31;6.10;99.90
19085;DHT22;9675;51.538;6.728;2024-01-06T13:19:58;6.10;99.90
19085;DHT22;9675;51.538;6.728;2024-01-06T13:22:25;6.00;99.90
19085;DHT22;9675;51.538;6.728;2024-01-06T13:24:52;6.00;99.90
19085;DHT22;9675;51.538;6.728;2024-01-06T13:27:20;6.00;99.90
19085;DHT22;9675;51.538;6.728;2024-01-06T13:29:47;6.00;99.90
19085;DHT22;9675;51.538;6.728;2024-01-06T13:32:14;6.00;99.90
19085;DHT22;9675;51.538;6.728;2024-01-06T13:34:42;5.90;99.90
19085;DHT22;9675;51.538;6.728;2024-01-06T13:37:09;6.00;99.90
19085;DHT22;9675;51.538;6.728;2024-01-06T13:39:36;5.90;99.90
19085;DHT22;9675;51.538;6.728;2024-01-06T13:42:04;6.00;99.90
19085;DHT22;9675;51.538;6.728;2024-01-06T13:44:33;5.90;99.90
19085;DHT22;9675;51.538;6.728;2024-01-06T13:47:00;5.90;99.90
19085;DHT22;9675;51.538;6.728;2024-01-06T13:49:27;5.90;99.90
19085;DHT22;9675;51.538;6.728;2024-01-06T13:51:54;5.90;99.90
19085;DHT22;9675;51.538;6.728;2024-01-06T13:54:22;5.90;99.90
19085;DHT22;9675;51.538;6.728;2024-01-06T13:56:49;5.90;99.90
19085;DHT22;9675;51.538;6.728;2024-01-06T13:59:17;5.90;99.90
19085;DHT22;9675;51.538;6.728;2024-01-06T14:01:46;5.90;99.90
19085;DHT22;9675;51.538;6.728;2024-01-06T14:04:13;5.90;99.90
19085;DHT22;9675;51.538;6.728;2024-01-06T14:06:42;5.90;99.90
19085;DHT22;9675;51.538;6.728;2024-01-06T14:09:09;5.90;99.90
19085;DHT22;9675;51.538;6.728;2024-01-06T14:11:37;5.90;99.90
19085;DHT22;9675;51.538;6.728;2024-01-06T14:14:04;5.90;99.90
19085;DHT22;9675;51.538;6.728;2024-01-06T14:16:31;5.80;99.90
19085;DHT22;9675;51.538;6.728;2024-01-06T14:19:00;5.80;99.90
19085;DHT22;9675;51.538;6.728;2024-01-06T14:21:27;5.80;99.90
19085;DHT22;9675;51.538;6.728;2024-01-06T14:23:54;5.80;99.90
19085;DHT22;9675;51.538;6.728;2024-01-06T14:26:24;5.80;99.90
19085;DHT22;9675;51.538;6.728;2024-01-06T14:28:51;5.70;99.90
19085;DHT22;9675;51.538;6.728;2024-01-06T14:31:18;5.70;99.90
19085;DHT22;9675;51.538;6.728;2024-01-06T14:33:46;5.70;99.90
19085;DHT22;9675;51.538;6.728;2024-01-06T14:36:14;5.70;99.90
19085;DHT22;9675;51.538;6.728;2024-01-06T14:38:42;5.70;99.90
19085;DHT22;9675;51.538;6.728;2024-01-06T14:41:08;5.70;99.90
19085;DHT22;9675;51.538;6.728;2024-01-06T14:43:35;5.70;99.90
19085;DHT22;9675;51.538;6.728;2024-01-06T14:46:02;5.70;99.90
19085;DHT22;9675;51.538;6.728;2024-01-06T14:48:31;5.70;99.90
19085;DHT22;9675;51.538;6.728;2024-01-06T14:50:58;5.70;99.90
19085;DHT22;9675;51.538;6.728;2024-01-06T14:53:29;5.70;99.90
19085;DHT22;9675;51.538;6.728;2024-01-06T14:55:56;5.70;99.90
19085;DHT22;9675;51.538;6.728;2024-01-06T14:58:23;5.70;99.90
19085;DHT22;9675;51.538;6.728;2024-01-06T15:00:50;5.70;99.90
19085;DHT22;9675;51.538;6.728;2024-01-06T15:03:17;5.70;99.90
19085;DHT22;9675;51.538;6.728;2024-01-06T15:05:44;5.70;99.90
19085;DHT22;9675;51.538;6.728;2024-01-06T15:08:12;5.60;99.90
19085;DHT22;9675;51.538;6.728;2024-01-06T15:10:40;5.60;99.90
19085;DHT22;9675;51.538;6.728;2024-01-06T15:13:07;5.60;99.90
19085;DHT22;9675;51.538;6.728;2024-01-06T15:15:35;5.60;99.90
19085;DHT22;9675;51.538;6.728;2024-01-06T15:18:03;5.70;99.90
19085;DHT22;9675;51.538;6.728;2024-01-06T15:20:31;5.60;99.90
19085;DHT22;9675;51.538;6.728;2024-01-06T15:22:58;5.60;99.90
19085;DHT22;9675;51.538;6.728;2024-01-06T15:25:25;5.60;99.90
19085;DHT22;9675;51.538;6.728;2024-01-06T15:27:54;5.60;99.90
19085;DHT22;9675;51.538;6.728;2024-01-06T15:30:21;5.60;99.90
19085;DHT22;9675;51.538;6.728;2024-01-06T15:32:49;5.60;99.90
19085;DHT22;9675;51.538;6.728;2024-01-06T15:35:16;5.60;99.90
19085;DHT22;9675;51.538;6.728;2024-01-06T15:37:43;5.60;99.90
19085;DHT22;9675;51.538;6.728;2024-01-06T15:40:10;5.60;99.90
19085;DHT22;9675;51.538;6.728;2024-01-06T15:42:38;5.60;99.90
19085;DHT22;9675;51.538;6.728;2024-01-06T15:45:08;5.60;99.90
19085;DHT22;9675;51.538;6.728;2024-01-06T15:47:37;5.60;99.90
19085;DHT22;9675;51.538;6.728;2024-01-06T15:50:05;5.60;99.90
19085;DHT22;9675;51.538;6.728;2024-01-06T15:52:33;5.50;99.90
19085;DHT22;9675;51.538;6.728;2024-01-06T15:55:00;5.50;99.90
19085;DHT22;9675;51.538;6.728;2024-01-06T15:57:27;5.50;99.90
19085;DHT22;9675;51.538;6.728;2024-01-06T15:59:56;5.50;99.90
19085;DHT22;9675;51.538;6.728;2024-01-06T16:02:25;5.50;99.90
19085;DHT22;9675;51.538;6.728;2024-01-06T16:04:52;5.40;99.90
19085;DHT22;9675;51.538;6.728;2024-01-06T16:07:19;5.40;99.90